createdAt,value
2018-07-28T00:04:24.457Z,5.45
2018-07-28T00:09:29.314Z,4.65
2018-07-28T00:14:34.166Z,5.37
2018-07-28T00:19:39.204Z,5.40
2018-07-28T00:24:44.702Z,6.12
2018-07-28T00:29:49.493Z,5.78
2018-07-28T00:34:54.215Z,6.40
2018-07-28T00:39:58.808Z,4.87
2018-07-28T00:45:04.009Z,5.83
2018-07-28T00:50:09.571Z,4.78
2018-07-28T00:55:14.272Z,5.12
2018-07-28T01:00:19.044Z,4.42
2018-07-28T01:05:24.593Z,8.08
2018-07-28T01:10:29.413Z,4.75
2018-07-28T01:15:34.130Z,5.15
2018-07-28T01:20:38.899Z,5.85
2018-07-28T01:25:43.911Z,6.87
2018-07-28T01:30:48.785Z,5.37
2018-07-28T01:35:53.833Z,5.60
2018-07-28T01:40:58.642Z,6.35
2018-07-28T01:46:03.604Z,6.30
2018-07-28T01:51:08.565Z,5.50
2018-07-28T01:56:13.304Z,5.65
2018-07-28T02:01:18.087Z,4.92
2018-07-28T02:06:23.059Z,6.28
2018-07-28T02:11:27.882Z,5.50
2018-07-28T02:16:34.063Z,4.97
2018-07-28T02:21:38.886Z,5.42
2018-07-28T02:26:43.646Z,6.85
2018-07-28T02:31:48.846Z,7.17
2018-07-28T02:42:04.506Z,8.23
2018-07-28T02:47:09.352Z,5.25
2018-07-28T02:52:14.573Z,6.45
2018-07-28T02:57:19.578Z,7.55
2018-07-28T03:02:25.352Z,5.53
2018-07-28T03:07:30.101Z,6.25
2018-07-28T03:12:34.958Z,8.60
2018-07-28T03:17:39.910Z,7.25
2018-07-28T03:22:44.489Z,5.75
2018-07-28T03:27:49.400Z,7.87
2018-07-28T03:32:54.521Z,5.85
2018-07-28T03:37:59.521Z,9.68
2018-07-28T03:43:04.386Z,6.15
2018-07-28T03:48:08.771Z,6.10
2018-07-28T03:53:13.606Z,6.37
2018-07-28T03:58:18.541Z,5.95
2018-07-28T04:03:23.445Z,9.13
2018-07-28T04:08:28.383Z,7.62
2018-07-28T04:13:33.220Z,6.97
2018-07-28T04:18:37.940Z,7.00
2018-07-28T04:23:43.103Z,7.70
2018-07-28T04:28:47.812Z,5.87
2018-07-28T04:33:52.568Z,7.10
2018-07-28T04:38:57.294Z,7.87
2018-07-28T04:44:02.161Z,9.93
2018-07-28T04:49:07.953Z,6.17
2018-07-28T04:54:12.892Z,5.50
2018-07-28T04:59:17.673Z,5.00
2018-07-28T05:04:22.753Z,5.62
2018-07-28T05:09:27.543Z,5.20
2018-07-28T05:14:33.241Z,8.15
2018-07-28T05:19:38.274Z,8.35
2018-07-28T05:24:43.217Z,5.90
2018-07-28T05:29:48.139Z,5.87
2018-07-28T05:34:52.998Z,7.22
2018-07-28T05:39:57.709Z,6.70
2018-07-28T05:45:02.965Z,5.33
2018-07-28T05:50:09.097Z,5.20
2018-07-28T05:55:14.300Z,5.50
2018-07-28T06:00:20.144Z,4.67
2018-07-28T06:05:25.050Z,4.90
2018-07-28T06:10:30.116Z,5.20
2018-07-28T06:15:35.801Z,10.72
2018-07-28T06:20:41.161Z,9.40
2018-07-28T06:30:53.577Z,6.10
2018-07-28T06:35:58.307Z,6.50
2018-07-28T06:41:03.079Z,7.60
2018-07-28T06:46:07.318Z,6.20
2018-07-28T06:51:12.621Z,5.90
2018-07-28T06:56:17.533Z,6.62
2018-07-28T07:01:22.437Z,9.13
2018-07-28T07:06:27.151Z,7.05
2018-07-28T07:11:32.425Z,9.83
2018-07-28T07:16:37.449Z,7.35
2018-07-28T07:21:42.116Z,7.55
2018-07-28T07:26:46.983Z,9.35
2018-07-28T07:31:51.817Z,7.87
2018-07-28T07:36:56.654Z,8.60
2018-07-28T07:42:01.826Z,9.28
2018-07-28T07:47:06.754Z,9.05
2018-07-28T07:52:12.608Z,11.33
2018-07-28T07:57:17.578Z,8.25
2018-07-28T08:02:22.364Z,6.75
2018-07-28T08:07:27.260Z,7.30
2018-07-28T08:12:31.816Z,7.97
2018-07-28T08:17:36.711Z,8.15
2018-07-28T08:22:41.450Z,4.72
2018-07-28T08:27:46.419Z,5.55
2018-07-28T08:32:51.768Z,5.10
2018-07-28T08:37:56.645Z,5.33
2018-07-28T08:43:01.634Z,6.92
2018-07-28T08:48:06.553Z,5.22
2018-07-28T08:53:11.899Z,5.05
2018-07-28T08:58:16.724Z,7.20
2018-07-28T09:03:21.819Z,7.42
2018-07-28T09:08:27.291Z,5.80
2018-07-28T09:13:32.433Z,9.63
2018-07-28T09:18:38.041Z,6.25
2018-07-28T09:23:43.172Z,4.60
2018-07-28T09:28:48.123Z,5.00
2018-07-28T09:33:52.939Z,3.22
2018-07-28T09:38:57.638Z,4.75
2018-07-28T09:44:02.334Z,3.20
2018-07-28T09:49:07.340Z,3.83
2018-07-28T09:54:11.916Z,3.40
2018-07-28T09:59:17.167Z,3.00
2018-07-28T10:04:21.996Z,4.83
2018-07-28T10:09:26.826Z,3.02
2018-07-28T10:14:31.522Z,3.05
2018-07-28T10:19:36.419Z,2.98
2018-07-28T10:24:41.093Z,2.75
2018-07-28T10:29:46.069Z,3.40
2018-07-28T10:34:50.876Z,3.87
2018-07-28T10:39:55.895Z,2.92
2018-07-28T10:45:03.391Z,5.70
2018-07-28T10:50:08.337Z,3.98
2018-07-28T10:55:13.529Z,3.08
2018-07-28T11:00:19.144Z,2.77
2018-07-28T11:05:23.869Z,2.62
2018-07-28T11:10:28.673Z,3.05
2018-07-28T11:15:33.486Z,2.52
2018-07-28T11:20:38.284Z,3.27
2018-07-28T11:25:43.606Z,2.80
2018-07-28T11:30:48.542Z,3.10
2018-07-28T11:36:04.157Z,3.55
2018-07-28T11:41:19.957Z,4.83
2018-07-28T11:46:24.761Z,3.08
2018-07-28T11:51:30.356Z,3.72
2018-07-28T11:56:35.236Z,4.25
2018-07-28T12:01:40.789Z,4.20
2018-07-28T12:06:45.440Z,4.83
2018-07-28T12:11:50.495Z,3.85
2018-07-28T12:16:55.839Z,3.80
2018-07-28T12:22:00.575Z,3.72
2018-07-28T12:27:05.191Z,4.03
2018-07-28T12:32:10.164Z,3.37
2018-07-28T12:37:14.994Z,3.98
2018-07-28T12:42:21.026Z,4.92
2018-07-28T12:47:25.565Z,6.40
2018-07-28T12:52:30.601Z,5.50
2018-07-28T12:57:35.249Z,4.78
2018-07-28T13:02:40.215Z,5.10
2018-07-28T13:07:45.040Z,4.47
2018-07-28T13:12:49.777Z,4.30
2018-07-28T13:17:55.099Z,4.53
2018-07-28T13:23:00.600Z,5.35
2018-07-28T13:28:05.314Z,4.08
2018-07-28T13:33:10.461Z,5.05
2018-07-28T13:38:15.444Z,6.50
2018-07-28T13:43:20.273Z,5.78
2018-07-28T13:48:25.088Z,4.45
2018-07-28T13:53:29.890Z,5.90
2018-07-28T13:58:34.670Z,4.05
2018-07-28T14:03:40.260Z,5.35
2018-07-28T14:08:45.412Z,5.40
2018-07-28T14:13:50.184Z,4.35
2018-07-28T14:18:55.287Z,4.30
2018-07-28T14:24:00.351Z,5.22
2018-07-28T14:29:05.227Z,4.60
2018-07-28T14:34:10.473Z,4.10
2018-07-28T14:39:15.628Z,4.25
2018-07-28T14:44:20.465Z,5.20
2018-07-28T14:49:25.416Z,5.33
2018-07-28T14:54:30.531Z,3.92
2018-07-28T14:59:35.480Z,3.02
2018-07-28T15:04:40.298Z,3.75
2018-07-28T15:09:45.264Z,5.22
2018-07-28T15:14:50.130Z,3.80
2018-07-28T15:19:54.845Z,3.75
2018-07-28T15:24:59.804Z,3.65
2018-07-28T15:30:05.134Z,3.65
2018-07-28T15:35:10.205Z,4.30
2018-07-28T15:40:15.141Z,4.42
2018-07-28T15:45:20.145Z,4.55
2018-07-28T15:50:25.530Z,5.60
2018-07-28T15:55:30.353Z,5.53
2018-07-28T16:00:35.231Z,3.95
2018-07-28T16:05:40.125Z,4.55
2018-07-28T16:10:45.775Z,4.08
2018-07-28T16:15:50.534Z,4.85
2018-07-28T16:20:55.804Z,3.80
2018-07-28T16:26:01.015Z,4.15
2018-07-28T16:31:06.195Z,4.75
2018-07-28T16:36:11.238Z,4.97
2018-07-28T16:41:16.184Z,8.00
2018-07-28T16:46:20.973Z,5.17
2018-07-28T16:51:25.713Z,4.70
2018-07-28T16:56:30.696Z,6.10
2018-07-28T17:01:35.628Z,5.35
2018-07-28T17:06:41.082Z,5.75
2018-07-28T17:11:45.765Z,4.80
2018-07-28T17:16:51.156Z,5.80
2018-07-28T17:21:56.155Z,6.00
2018-07-28T17:27:01.153Z,6.40
2018-07-28T17:32:06.086Z,5.65
2018-07-28T17:37:11.023Z,6.37
2018-07-28T17:42:15.944Z,4.42
2018-07-28T17:47:21.016Z,5.50
2018-07-28T17:52:25.723Z,5.08
2018-07-28T17:57:30.751Z,4.87
2018-07-28T18:02:35.469Z,6.47
2018-07-28T18:07:40.263Z,6.05
2018-07-28T18:12:45.226Z,5.30
2018-07-28T18:17:50.136Z,5.62
2018-07-28T18:22:55.344Z,5.10
2018-07-28T18:28:00.334Z,5.45
2018-07-28T18:33:05.707Z,5.37
2018-07-28T18:39:13.383Z,7.40
2018-07-28T18:44:18.339Z,6.60
2018-07-28T18:49:23.169Z,5.55
2018-07-28T18:54:27.880Z,5.78
2018-07-28T18:59:32.534Z,5.20
2018-07-28T19:04:37.307Z,6.28
2018-07-28T19:09:50.131Z,7.45
2018-07-28T19:14:55.204Z,7.05
2018-07-28T19:20:00.213Z,7.47
2018-07-28T19:25:05.625Z,6.45
2018-07-28T19:30:10.774Z,4.72
2018-07-28T19:35:15.497Z,6.65
2018-07-28T19:40:20.459Z,5.87
2018-07-28T19:45:25.239Z,5.75
2018-07-28T19:50:30.206Z,5.90
2018-07-28T19:55:35.094Z,6.35
2018-07-28T20:00:39.873Z,5.70
2018-07-28T20:05:45.822Z,7.62
2018-07-28T20:10:52.263Z,6.90
2018-07-28T20:15:57.188Z,6.45
2018-07-28T20:21:02.434Z,6.67
2018-07-28T20:26:07.101Z,8.28
2018-07-28T20:31:12.613Z,6.65
2018-07-28T20:36:17.348Z,6.58
2018-07-28T20:41:22.960Z,6.75
2018-07-28T20:46:27.531Z,7.12
2018-07-28T20:51:32.179Z,6.15
2018-07-28T20:56:37.018Z,7.08
2018-07-28T21:01:42.972Z,5.12
2018-07-28T21:06:48.378Z,7.80
2018-07-28T21:11:53.461Z,6.67
2018-07-28T21:16:58.714Z,7.05
2018-07-28T21:22:03.521Z,6.33
2018-07-28T21:27:08.967Z,6.00
2018-07-28T21:32:13.716Z,6.33
2018-07-28T21:37:22.059Z,5.70
2018-07-28T21:42:26.998Z,6.78
2018-07-28T21:47:31.965Z,5.85
2018-07-28T21:52:36.780Z,7.12
2018-07-28T21:57:41.506Z,7.92
2018-07-28T22:02:46.332Z,6.30
2018-07-28T22:07:52.413Z,6.67
2018-07-28T22:12:57.273Z,6.62
2018-07-28T22:18:02.121Z,7.17
2018-07-28T22:23:07.336Z,7.47
2018-07-28T22:28:12.288Z,11.25
2018-07-28T22:33:17.526Z,5.97
2018-07-28T22:38:22.227Z,5.97
2018-07-28T22:43:26.997Z,7.97
2018-07-28T22:48:32.963Z,6.85
2018-07-28T22:53:37.692Z,8.35
2018-07-28T22:58:43.039Z,7.45
2018-07-28T23:03:47.716Z,7.92
2018-07-28T23:08:53.173Z,5.97
2018-07-28T23:13:57.867Z,7.22
2018-07-28T23:19:02.894Z,6.12
2018-07-28T23:24:07.645Z,7.70
2018-07-28T23:29:12.416Z,6.75
2018-07-28T23:34:17.128Z,6.72
2018-07-28T23:39:21.857Z,6.70
2018-07-28T23:44:26.628Z,7.35
2018-07-28T23:49:31.550Z,8.50
2018-07-28T23:54:36.565Z,7.22
2018-07-28T23:59:41.831Z,10.23
